Time;durP1;ratioP1;P1;durP2;ratioP2;P2;SDS_P1;SDS_P2;PMS_P1;PMS_P2;Temp;Humidity;BMP_temperature;BMP_pressure;BME280_temperature;BME280_humidity;BME280_pressure;Samples;Min_cycle;Max_cycle;Signal;HPM_P1;HPM_P2
2022/09/07 00:00:42;;;;;;;;;1.00;1.00;;;;;21.98;100.00;101039.00;5032761;28;61522;-69
2022/09/07 00:03:07;;;;;;;;;1.33;1.33;;;;;21.93;100.00;101030.19;5018983;28;45424;-69
2022/09/07 00:05:33;;;;;;;;;2.33;1.33;;;;;21.90;100.00;101034.81;5036018;28;57832;-69
2022/09/07 00:07:58;;;;;;;;;1.00;1.00;;;;;21.86;100.00;101038.53;5036794;28;45367;-68
2022/09/07 00:10:24;;;;;;;;;2.67;2.00;;;;;21.85;100.00;101047.53;5019005;28;45619;-68
2022/09/07 00:12:50;;;;;;;;;2.00;2.00;;;;;21.85;100.00;101040.34;5036526;28;45234;-69
2022/09/07 00:15:16;;;;;;;;;1.33;1.33;;;;;21.88;100.00;101036.66;5036684;28;45336;-69
2022/09/07 00:17:42;;;;;;;;;3.00;3.00;;;;;21.84;100.00;101040.38;5036421;28;45627;-69
2022/09/07 00:20:08;;;;;;;;;4.00;2.67;;;;;21.86;100.00;101039.41;5036507;28;46346;-68
2022/09/07 00:22:34;;;;;;;;;2.33;2.33;;;;;21.88;100.00;101042.91;5036573;28;45443;-68
2022/09/07 00:24:59;;;;;;;;;3.00;2.00;;;;;21.95;100.00;101038.25;5036808;28;45616;-68
2022/09/07 00:27:24;;;;;;;;;3.00;2.00;;;;;21.99;100.00;101031.81;5035928;28;47246;-69
2022/09/07 00:29:50;;;;;;;;;3.67;2.33;;;;;22.09;100.00;101035.06;5036382;28;46351;-69
2022/09/07 00:32:15;;;;;;;;;2.00;2.00;;;;;22.11;100.00;101041.34;5036469;28;58965;-69
2022/09/07 00:34:40;;;;;;;;;3.00;2.00;;;;;22.12;100.00;101033.19;5035528;28;57464;-68
2022/09/07 00:37:06;;;;;;;;;3.00;2.00;;;;;22.19;100.00;101033.88;5035990;28;45368;-69
2022/09/07 00:39:32;;;;;;;;;1.00;1.00;;;;;22.25;100.00;101039.03;5036049;28;46476;-69
2022/09/07 00:41:58;;;;;;;;;2.00;2.00;;;;;22.28;100.00;101038.94;5036397;28;45546;-69
2022/09/07 00:44:41;;;;;;;;;3.00;2.00;;;;;22.31;100.00;101033.44;5036686;28;45443;-69
2022/09/07 00:47:37;;;;;;;;;2.33;2.00;;;;;22.34;100.00;101036.03;5032965;28;45258;-69
2022/09/07 00:50:15;;;;;;;;;2.00;1.00;;;;;22.35;100.00;101040.47;5028113;28;46689;-68
2022/09/07 00:52:42;;;;;;;;;1.67;1.67;;;;;22.33;100.00;101033.41;5016338;28;45506;-69
2022/09/07 00:55:10;;;;;;;;;3.00;2.00;;;;;22.35;100.00;101029.72;5036458;28;51532;-69
2022/09/07 00:57:37;;;;;;;;;2.00;2.00;;;;;22.36;100.00;101031.47;5035677;28;45419;-68
2022/09/07 01:00:04;;;;;;;;;2.00;1.00;;;;;22.33;100.00;101028.03;5017599;28;47748;-68
2022/09/07 01:02:29;;;;;;;;;2.00;2.00;;;;;22.36;100.00;101035.97;5035722;28;45250;-69
2022/09/07 01:05:01;;;;;;;;;4.33;3.00;;;;;22.36;100.00;101038.66;5035360;28;53409;-69
2022/09/07 01:07:26;;;;;;;;;1.00;1.00;;;;;22.35;100.00;101035.09;5018166;28;45394;-69
2022/09/07 01:09:51;;;;;;;;;1.00;1.00;;;;;22.36;100.00;101026.09;5035554;28;46250;-69
2022/09/07 01:12:17;;;;;;;;;1.00;1.00;;;;;22.36;100.00;101017.13;5035168;28;57359;-69
2022/09/07 01:14:49;;;;;;;;;4.33;1.33;;;;;22.36;100.00;101023.41;5035588;28;52062;-69
2022/09/07 01:17:30;;;;;;;;;1.67;1.67;;;;;22.33;100.00;101018.16;5034678;28;45544;-69
2022/09/07 01:20:26;;;;;;;;;1.00;1.00;;;;;22.33;100.00;101028.03;5034354;28;46357;-69
2022/09/07 01:23:20;;;;;;;;;3.00;2.00;;;;;22.30;100.00;101022.75;5032556;28;45369;-69
2022/09/07 01:25:52;;;;;;;;;1.00;1.00;;;;;22.29;100.00;101021.00;5035674;28;45395;-69
2022/09/07 01:28:46;;;;;;;;;1.33;1.33;;;;;22.25;100.00;101025.59;5035090;28;45704;-69
2022/09/07 01:31:36;;;;;;;;;2.00;2.00;;;;;22.22;100.00;101029.28;5035404;28;45875;-68
2022/09/07 01:34:11;;;;;;;;;1.33;1.00;;;;;22.20;100.00;101025.72;5035626;28;45444;-69
2022/09/07 01:36:55;;;;;;;;;3.00;1.00;;;;;22.19;100.00;101015.03;5035213;28;45554;-69
2022/09/07 01:39:27;;;;;;;;;1.00;1.00;;;;;22.16;100.00;101017.84;5017548;28;45544;-69
2022/09/07 01:42:11;;;;;;;;;3.00;1.33;;;;;22.13;100.00;101012.56;5013183;28;46320;-69
2022/09/07 01:45:03;;;;;;;;;2.00;2.00;;;;;22.15;100.00;101016.06;5035353;28;45558;-69
2022/09/07 01:47:38;;;;;;;;;3.00;1.33;;;;;22.11;100.00;101015.31;5018766;28;45602;-69
2022/09/07 01:50:06;;;;;;;;;1.67;1.00;;;;;22.08;100.00;101014.50;5017901;28;45361;-69
2022/09/07 01:52:34;;;;;;;;;0.67;0.67;;;;;22.07;100.00;101019.00;5034902;28;46364;-69
2022/09/07 01:55:03;;;;;;;;;1.00;1.00;;;;;22.06;100.00;101021.75;5035512;28;45442;-69
2022/09/07 01:57:42;;;;;;;;;1.33;1.00;;;;;22.00;100.00;101017.44;5017191;28;45404;-69
2022/09/07 02:00:11;;;;;;;;;2.67;2.00;;;;;22.01;100.00;101015.63;5017845;28;45492;-69
2022/09/07 02:02:52;;;;;;;;;2.00;1.67;;;;;22.00;100.00;101011.16;5000320;28;48913;-68
2022/09/07 02:05:31;;;;;;;;;2.00;2.00;;;;;21.95;100.00;101012.22;5034828;28;45458;-69
2022/09/07 02:08:12;;;;;;;;;2.00;2.00;;;;;21.93;100.00;101019.44;5034890;28;45537;-68
2022/09/07 02:10:41;;;;;;;;;6.00;1.00;;;;;21.92;100.00;101017.69;5015407;28;45707;-69
2022/09/07 02:13:14;;;;;;;;;3.00;1.00;;;;;21.91;100.00;101020.44;5017350;28;46680;-68
2022/09/07 02:15:56;;;;;;;;;3.00;1.00;;;;;21.88;100.00;101013.34;5035181;28;45385;-69
2022/09/07 02:18:23;;;;;;;;;1.00;1.00;;;;;21.85;100.00;101007.19;5017358;28;45462;-69
2022/09/07 02:20:52;;;;;;;;;2.00;2.00;;;;;21.82;100.00;100999.22;5016773;28;45649;-69
2022/09/07 02:23:21;;;;;;;;;1.00;1.00;;;;;21.76;100.00;100994.06;5038728;28;45573;-69
2022/09/07 02:25:54;;;;;;;;;3.00;1.00;;;;;21.73;100.00;101000.38;5020272;28;45500;-69
2022/09/07 02:28:29;;;;;;;;;3.00;1.33;;;;;21.71;100.00;101003.13;5020781;28;45472;-69
2022/09/07 02:30:54;;;;;;;;;1.33;1.00;;;;;21.70;100.00;101003.19;5038105;28;45538;-68
2022/09/07 02:33:20;;;;;;;;;5.00;2.00;;;;;21.66;100.00;100998.84;5037944;28;46411;-69
2022/09/07 02:35:45;;;;;;;;;1.00;1.00;;;;;21.62;100.00;100999.84;5037845;28;45386;-69
2022/09/07 02:38:11;;;;;;;;;1.67;1.67;;;;;21.60;100.00;101007.09;5035755;28;49066;-69
2022/09/07 02:40:37;;;;;;;;;2.00;1.67;;;;;21.56;100.00;101009.00;5038220;28;45506;-69
2022/09/07 02:43:05;;;;;;;;;2.33;2.00;;;;;21.53;100.00;101011.81;5038007;28;45790;-69
2022/09/07 02:45:40;;;;;;;;;2.33;1.00;;;;;21.48;100.00;101005.69;5037811;28;45630;-69
2022/09/07 02:48:15;;;;;;;;;0.67;0.67;;;;;21.47;100.00;101005.75;5038103;28;45345;-68
2022/09/07 02:50:49;;;;;;;;;2.33;1.00;;;;;21.44;100.00;101004.91;5017035;28;45286;-69
2022/09/07 02:53:38;;;;;;;;;1.00;1.00;;;;;21.44;100.00;101012.97;5019131;28;46505;-70
2022/09/07 02:56:25;;;;;;;;;1.00;1.00;;;;;21.39;100.00;101012.22;5020021;28;45443;-69
2022/09/07 02:59:12;;;;;;;;;2.00;0.67;;;;;21.34;100.00;101013.28;5017668;28;45503;-68
2022/09/07 03:01:49;;;;;;;;;1.33;1.00;;;;;21.32;100.00;101009.78;5038220;28;45438;-69
2022/09/07 03:04:23;;;;;;;;;5.00;2.00;;;;;21.28;100.00;101005.38;5034618;28;46726;-68
2022/09/07 03:06:59;;;;;;;;;2.33;1.00;;;;;21.27;100.00;101006.31;5038689;28;45448;-69
2022/09/07 03:09:27;;;;;;;;;3.00;1.33;;;;;21.25;100.00;101011.72;5016552;28;45521;-68
2022/09/07 03:11:52;;;;;;;;;3.00;2.00;;;;;21.22;100.00;101008.25;5035252;28;45474;-69
2022/09/07 03:14:20;;;;;;;;;1.00;1.00;;;;;21.19;100.00;101019.97;5018441;28;63351;-69
2022/09/07 03:16:48;;;;;;;;;1.00;1.00;;;;;21.14;100.00;101022.78;5037176;28;45329;-69
2022/09/07 03:19:14;;;;;;;;;1.00;1.00;;;;;21.10;100.00;101012.19;5018210;28;45429;-69
2022/09/07 03:21:39;;;;;;;;;0.00;0.00;;;;;21.07;100.00;101014.97;5037596;28;45775;-69
2022/09/07 03:24:05;;;;;;;;;1.00;1.00;;;;;21.05;100.00;101006.09;5036972;28;58552;-68
2022/09/07 03:26:30;;;;;;;;;3.00;1.00;;;;;21.04;100.00;101020.41;5036133;28;45321;-68
2022/09/07 03:28:56;;;;;;;;;1.00;1.00;;;;;21.01;100.00;101026.75;5037118;28;45347;-67
2022/09/07 03:31:21;;;;;;;;;1.00;1.00;;;;;20.98;100.00;101025.97;5037713;28;45291;-69
2022/09/07 03:33:47;;;;;;;;;2.67;1.67;;;;;20.95;100.00;101020.69;5034810;28;64570;-68
2022/09/07 03:36:12;;;;;;;;;1.00;1.00;;;;;20.97;100.00;101019.72;5037314;28;45337;-68
2022/09/07 03:38:38;;;;;;;;;3.67;2.00;;;;;20.98;100.00;101023.28;5036920;28;45332;-69
2022/09/07 03:41:05;;;;;;;;;1.00;1.00;;;;;20.97;100.00;101027.78;5036753;28;54218;-70
2022/09/07 03:43:30;;;;;;;;;3.33;2.33;;;;;20.96;100.00;101027.81;5016583;28;46705;-69
2022/09/07 03:46:06;;;;;;;;;1.67;1.33;;;;;20.92;100.00;101027.91;5018848;28;45512;-68
2022/09/07 03:48:32;;;;;;;;;1.00;1.00;;;;;20.91;100.00;101033.31;5036373;28;45328;-69
2022/09/07 03:51:02;;;;;;;;;2.33;1.67;;;;;20.87;100.00;101035.19;5035481;28;45478;-68
2022/09/07 03:53:33;;;;;;;;;2.67;2.00;;;;;20.85;100.00;101042.44;5036978;28;46648;-68
2022/09/07 03:56:04;;;;;;;;;1.00;1.00;;;;;20.83;100.00;101033.56;5035962;28;45472;-69
2022/09/07 03:58:31;;;;;;;;;3.33;1.67;;;;;20.80;100.00;101036.31;5036352;28;45511;-69
2022/09/07 04:00:57;;;;;;;;;1.00;1.00;;;;;20.76;100.00;101041.78;5036312;28;45495;-69
2022/09/07 04:03:22;;;;;;;;;2.00;2.00;;;;;20.73;100.00;101052.63;5036265;28;46266;-68
2022/09/07 04:05:48;;;;;;;;;3.33;1.00;;;;;20.66;100.00;101044.72;5035664;28;57946;-69
2022/09/07 04:08:13;;;;;;;;;1.33;1.33;;;;;20.61;100.00;101048.47;5036411;28;52169;-68
2022/09/07 04:10:39;;;;;;;;;2.67;2.00;;;;;20.58;100.00;101046.75;5015359;28;45523;-67
2022/09/07 04:13:05;;;;;;;;;1.00;1.00;;;;;20.59;100.00;101055.69;5036365;28;46425;-69
2022/09/07 04:15:31;;;;;;;;;1.00;1.00;;;;;20.57;100.00;101060.22;5036485;28;45211;-69
2022/09/07 04:17:56;;;;;;;;;3.67;2.00;;;;;20.55;100.00;101065.59;5036232;28;47047;-68
2022/09/07 04:20:22;;;;;;;;;2.00;2.00;;;;;20.53;100.00;101069.25;5037016;28;45420;-68
2022/09/07 04:22:48;;;;;;;;;1.00;1.00;;;;;20.50;100.00;101080.06;5010882;28;61518;-69
2022/09/07 04:25:13;;;;;;;;;5.00;2.33;;;;;20.42;100.00;101080.25;5036196;28;45460;-68
2022/09/07 04:27:39;;;;;;;;;4.00;1.00;;;;;20.38;100.00;101076.75;5037073;28;45598;-69
2022/09/07 04:30:05;;;;;;;;;1.00;1.00;;;;;20.36;100.00;101070.53;5035564;28;48942;-68
2022/09/07 04:32:30;;;;;;;;;4.67;1.33;;;;;20.40;100.00;101068.69;5036599;28;45342;-68
2022/09/07 04:34:55;;;;;;;;;2.67;1.00;;;;;20.42;100.00;101077.56;5036119;28;52447;-69
2022/09/07 04:37:21;;;;;;;;;7.33;1.67;;;;;20.45;100.00;101072.09;5036028;28;50755;-69
2022/09/07 04:39:46;;;;;;;;;2.67;1.00;;;;;20.48;100.00;101073.88;5036515;28;45601;-69
2022/09/07 04:42:12;;;;;;;;;2.33;2.00;;;;;20.47;100.00;101072.09;5035306;28;47328;-69
2022/09/07 04:44:37;;;;;;;;;1.67;1.00;;;;;20.49;100.00;101071.13;5011040;28;56419;-69
2022/09/07 04:47:02;;;;;;;;;3.00;2.00;;;;;20.51;100.00;101077.34;5025011;28;51410;-70
2022/09/07 04:49:28;;;;;;;;;4.33;2.00;;;;;20.50;100.00;101069.31;5032732;28;45324;-70
2022/09/07 04:51:53;;;;;;;;;6.00;1.67;;;;;20.50;100.00;101072.88;5033362;28;57547;-70
2022/09/07 04:54:18;;;;;;;;;1.67;1.00;;;;;20.53;100.00;101071.94;5033314;28;55493;-70
2022/09/07 04:56:44;;;;;;;;;2.33;2.00;;;;;20.55;100.00;101076.34;5032237;28;51149;-71
2022/09/07 04:59:09;;;;;;;;;1.67;1.00;;;;;20.55;100.00;101073.66;5033376;28;45483;-72
2022/09/07 05:01:34;;;;;;;;;3.67;2.33;;;;;20.56;100.00;101071.84;5030904;28;60205;-71
2022/09/07 05:04:01;;;;;;;;;3.33;2.00;;;;;20.57;100.00;101062.91;5032254;28;45478;-69
2022/09/07 05:06:26;;;;;;;;;4.00;1.00;;;;;20.57;100.00;101069.16;5015888;28;45730;-72
2022/09/07 05:08:52;;;;;;;;;4.67;2.33;;;;;20.56;100.00;101067.38;5034675;28;45459;-69
2022/09/07 05:11:19;;;;;;;;;1.33;1.00;;;;;20.57;100.00;101068.28;5032335;28;46273;-70
2022/09/07 05:13:44;;;;;;;;;1.33;1.00;;;;;20.57;100.00;101068.28;5034131;28;45532;-69
2022/09/07 05:16:11;;;;;;;;;3.00;1.67;;;;;20.59;100.00;101077.13;5033651;28;45337;-72
2022/09/07 05:18:37;;;;;;;;;3.33;2.00;;;;;20.59;100.00;101071.78;5033757;28;45566;-69
2022/09/07 05:21:13;;;;;;;;;1.00;1.00;;;;;20.58;100.00;101075.38;5011952;28;46481;-69
2022/09/07 05:23:39;;;;;;;;;1.00;1.00;;;;;20.58;100.00;101084.31;5029138;28;45598;-69
2022/09/07 05:26:05;;;;;;;;;2.33;2.33;;;;;20.58;100.00;101086.13;5032553;28;45543;-70
2022/09/07 05:28:31;;;;;;;;;5.00;1.67;;;;;20.60;100.00;101093.19;5032625;28;45487;-70
2022/09/07 05:31:08;;;;;;;;;4.00;2.00;;;;;20.62;100.00;101093.19;5032822;28;47425;-70
2022/09/07 05:33:34;;;;;;;;;3.00;3.00;;;;;20.63;100.00;101095.81;5027811;28;45782;-69
2022/09/07 05:36:00;;;;;;;;;6.00;1.00;;;;;20.60;100.00;101093.19;5030302;28;45471;-70
2022/09/07 05:38:26;;;;;;;;;3.33;1.67;;;;;20.60;100.00;101097.69;5033751;28;45433;-70
2022/09/07 05:40:52;;;;;;;;;2.33;2.00;;;;;20.59;100.00;101088.75;5033527;28;45626;-70
2022/09/07 05:43:17;;;;;;;;;3.67;2.33;;;;;20.58;100.00;101089.69;5032471;28;57324;-69
2022/09/07 05:45:42;;;;;;;;;3.00;2.00;;;;;20.56;100.00;101082.56;5032864;28;45437;-70
2022/09/07 05:48:08;;;;;;;;;5.00;3.00;;;;;20.58;100.00;101081.63;5028145;28;51457;-69
2022/09/07 05:50:34;;;;;;;;;3.33;2.00;;;;;20.57;100.00;101077.19;5013855;28;45447;-69
2022/09/07 05:53:00;;;;;;;;;6.67;2.33;;;;;20.58;100.00;101081.63;5030230;28;45403;-71
2022/09/07 05:55:25;;;;;;;;;5.00;2.33;;;;;20.59;100.00;101080.69;5028315;28;46314;-71
2022/09/07 05:57:51;;;;;;;;;2.33;2.33;;;;;20.59;100.00;101085.19;5029043;28;46697;-70
2022/09/07 06:00:16;;;;;;;;;3.33;1.67;;;;;20.54;100.00;101079.94;5030899;28;46144;-71
2022/09/07 06:02:41;;;;;;;;;3.00;3.00;;;;;20.56;100.00;101091.53;5036032;28;45498;-72
2022/09/07 06:05:09;;;;;;;;;6.00;2.00;;;;;20.57;100.00;101098.66;5032700;28;54941;-71
2022/09/07 06:07:35;;;;;;;;;3.00;2.00;;;;;20.56;100.00;101090.63;5037930;28;45494;-69
2022/09/07 06:10:00;;;;;;;;;4.00;3.00;;;;;20.53;100.00;101093.41;5035642;28;45748;-72
2022/09/07 06:12:26;;;;;;;;;4.00;4.00;;;;;20.54;100.00;101098.72;5038146;28;51362;-70
2022/09/07 06:14:51;;;;;;;;;5.00;3.00;;;;;20.55;100.00;101094.22;5034896;28;45500;-71
2022/09/07 06:17:16;;;;;;;;;4.00;1.33;;;;;20.55;100.00;101088.88;5032557;28;45559;-71
2022/09/07 06:19:42;;;;;;;;;44.00;34.67;;;;;20.59;100.00;101087.88;5031992;28;58251;-70
2022/09/07 06:22:07;;;;;;;;;4.67;2.00;;;;;20.60;100.00;101084.25;5033182;28;57484;-70
2022/09/07 06:24:32;;;;;;;;;5.00;3.67;;;;;20.63;100.00;101098.50;5035943;28;49691;-71
2022/09/07 06:26:57;;;;;;;;;4.33;2.67;;;;;20.66;100.00;101089.47;5035249;28;49887;-70
2022/09/07 06:29:23;;;;;;;;;6.67;3.00;;;;;20.66;100.00;101097.50;5032846;28;58330;-70
2022/09/07 06:31:48;;;;;;;;;8.33;3.00;;;;;20.66;100.00;101086.78;5035587;28;57311;-70
2022/09/07 06:34:13;;;;;;;;;4.00;3.00;;;;;20.66;100.00;101095.72;5036708;28;45439;-70
2022/09/07 06:36:39;;;;;;;;;5.00;3.00;;;;;20.69;100.00;101089.41;5038520;28;45619;-71
2022/09/07 06:39:04;;;;;;;;;3.00;2.00;;;;;20.72;100.00;101105.44;5034619;28;57906;-71
2022/09/07 06:41:30;;;;;;;;;2.00;2.00;;;;;20.73;100.00;101101.81;5036504;28;45472;-70
2022/09/07 06:43:56;;;;;;;;;2.33;2.33;;;;;20.73;100.00;101096.44;5036544;28;45411;-71
2022/09/07 06:46:22;;;;;;;;;3.33;2.00;;;;;20.73;100.00;101095.56;5036501;28;45516;-71
2022/09/07 06:48:51;;;;;;;;;6.33;1.00;;;;;20.76;100.00;101096.34;5033263;28;46451;-70
2022/09/07 06:51:18;;;;;;;;;4.00;2.00;;;;;20.81;100.00;101104.28;5036880;28;45550;-71
2022/09/07 06:53:45;;;;;;;;;5.33;3.00;;;;;20.83;100.00;101107.81;5037150;28;45320;-70
2022/09/07 06:56:13;;;;;;;;;4.33;3.00;;;;;20.84;100.00;101097.03;5037436;28;45353;-71
2022/09/07 06:58:39;;;;;;;;;4.33;2.00;;;;;20.87;100.00;101099.63;5036917;28;45741;-71
2022/09/07 07:01:23;;;;;;;;;3.33;3.00;;;;;20.87;100.00;101082.63;5036489;28;56547;-70
2022/09/07 07:03:49;;;;;;;;;5.00;2.00;;;;;20.90;100.00;101099.53;5036018;28;45544;-71
2022/09/07 07:06:15;;;;;;;;;6.67;5.00;;;;;20.92;100.00;101088.75;5030374;28;45412;-69
2022/09/07 07:08:40;;;;;;;;;2.00;2.00;;;;;20.91;100.00;101090.56;5035209;28;46043;-71
2022/09/07 07:11:11;;;;;;;;;5.67;2.33;;;;;20.93;100.00;101086.06;5015603;28;47536;-71
2022/09/07 07:13:38;;;;;;;;;3.33;3.00;;;;;20.93;100.00;101061.91;5035710;28;45498;-71
2022/09/07 07:16:08;;;;;;;;;4.67;1.00;;;;;21.04;100.00;101074.09;5036190;28;45554;-73
2022/09/07 07:18:34;;;;;;;;;2.00;2.00;;;;;21.11;100.00;101073.03;5032211;28;46437;-70
2022/09/07 07:21:05;;;;;;;;;8.67;3.00;;;;;21.15;100.00;101074.72;5035619;28;45333;-70
2022/09/07 07:23:31;;;;;;;;;7.67;3.00;;;;;21.18;100.00;101078.16;5029332;28;45464;-70
2022/09/07 07:26:05;;;;;;;;;6.67;3.67;;;;;21.23;100.00;101078.03;5034720;28;45712;-71
2022/09/07 07:28:31;;;;;;;;;3.33;2.00;;;;;21.27;100.00;101078.84;5033758;28;46329;-69
2022/09/07 07:30:58;;;;;;;;;3.67;3.67;;;;;21.31;100.00;101077.88;5035171;28;45535;-69
2022/09/07 07:33:24;;;;;;;;;5.00;3.00;;;;;21.33;100.00;101082.25;5034238;28;45448;-71
2022/09/07 07:35:49;;;;;;;;;5.67;2.33;;;;;21.33;100.00;101071.50;5036057;28;45404;-70
2022/09/07 07:38:14;;;;;;;;;3.33;3.00;;;;;21.41;100.00;101073.94;5036019;28;46263;-69
2022/09/07 07:40:40;;;;;;;;;3.33;1.67;;;;;21.45;100.00;101068.44;5035816;28;55266;-71
2022/09/07 07:43:05;;;;;;;;;4.33;2.67;;;;;21.49;100.00;101066.56;5035779;28;52916;-70
2022/09/07 07:45:30;;;;;;;;;3.33;2.67;;;;;21.55;100.00;101069.03;5036440;28;48840;-68
2022/09/07 07:47:56;;;;;;;;;4.67;1.67;;;;;21.59;100.00;101061.78;5035264;28;57297;-70
2022/09/07 07:50:21;;;;;;;;;2.00;1.00;;;;;21.65;100.00;101073.22;5038460;28;45524;-70
2022/09/07 07:52:47;;;;;;;;;4.00;2.00;;;;;21.71;100.00;101072.13;5036211;28;45614;-70
2022/09/07 07:55:12;;;;;;;;;6.33;3.33;;;;;21.78;100.00;101072.81;5034432;28;46809;-70
2022/09/07 07:57:38;;;;;;;;;4.33;2.00;;;;;21.82;100.00;101051.19;5035616;28;46329;-70
2022/09/07 08:00:05;;;;;;;;;4.00;3.00;;;;;21.87;100.00;101062.66;5035343;28;51588;-71
2022/09/07 08:02:30;;;;;;;;;4.33;2.67;;;;;21.87;100.00;101057.28;5035350;28;45519;-70
2022/09/07 08:04:55;;;;;;;;;3.67;3.00;;;;;21.89;100.00;101065.28;5035868;28;45855;-71
2022/09/07 08:07:21;;;;;;;;;9.33;2.00;;;;;21.90;100.00;101057.19;5034696;28;59486;-71
2022/09/07 08:09:47;;;;;;;;;3.33;1.00;;;;;21.88;100.00;101048.28;5035977;28;45465;-70
2022/09/07 08:12:17;;;;;;;;;6.00;3.00;;;;;21.90;100.00;101054.50;5036076;28;45451;-70
2022/09/07 08:14:43;;;;;;;;;6.00;3.00;;;;;21.90;100.00;101056.31;5035518;28;45520;-71
2022/09/07 08:17:11;;;;;;;;;5.67;2.33;;;;;21.96;100.00;101057.00;5034440;28;46607;-70
2022/09/07 08:19:36;;;;;;;;;4.00;3.00;;;;;22.02;100.00;101049.66;5032721;28;45563;-70
2022/09/07 08:22:02;;;;;;;;;2.67;2.67;;;;;22.08;100.00;101057.53;5035675;28;45472;-70
2022/09/07 08:24:29;;;;;;;;;5.00;2.00;;;;;22.14;100.00;101057.34;5034446;28;45585;-69
2022/09/07 08:26:55;;;;;;;;;5.67;2.33;;;;;22.21;100.00;101056.19;5033788;28;47591;-71
2022/09/07 08:29:20;;;;;;;;;3.00;3.00;;;;;22.28;100.00;101048.81;5033630;28;69112;-69
2022/09/07 08:31:46;;;;;;;;;3.33;2.00;;;;;22.33;100.00;101054.94;5035394;28;45527;-70
2022/09/07 08:34:11;;;;;;;;;7.00;4.00;;;;;22.37;100.00;101046.72;5035446;28;45558;-69
2022/09/07 08:36:36;;;;;;;;;9.67;3.00;;;;;22.43;100.00;101046.50;5035087;28;46630;-70
2022/09/07 08:39:02;;;;;;;;;5.33;2.67;;;;;22.52;100.00;101049.78;5033907;28;63699;-69
2022/09/07 08:41:38;;;;;;;;;4.00;2.00;;;;;22.57;100.00;101054.06;5035365;28;45539;-71
2022/09/07 08:44:30;;;;;;;;;8.33;3.00;;;;;22.70;100.00;101057.22;5034134;28;45625;-71
2022/09/07 08:47:17;;;;;;;;;4.67;1.00;;;;;22.83;100.00;101053.13;5034787;28;46225;-70
2022/09/07 08:49:52;;;;;;;;;7.33;3.00;;;;;22.92;100.00;101058.22;5031791;28;45927;-70
2022/09/07 08:52:24;;;;;;;;;6.33;2.67;;;;;22.99;100.00;101051.69;5034152;28;45458;-71
2022/09/07 08:55:00;;;;;;;;;3.00;2.00;;;;;23.06;100.00;101056.81;5033517;28;45694;-71
2022/09/07 08:57:29;;;;;;;;;5.00;3.00;;;;;23.11;100.00;101053.03;5017955;28;47529;-70
2022/09/07 09:00:05;;;;;;;;;2.67;2.00;;;;;23.17;100.00;101060.00;5033877;28;45538;-69
2022/09/07 09:02:30;;;;;;;;;5.67;3.67;;;;;23.23;100.00;101049.00;5017073;28;45709;-70
2022/09/07 09:04:55;;;;;;;;;10.00;3.00;;;;;23.27;100.00;101042.53;5016804;28;45617;-70
2022/09/07 09:07:30;;;;;;;;;7.00;4.00;;;;;23.36;100.00;101050.28;5031923;28;47877;-70
2022/09/07 09:10:12;;;;;;;;;8.00;2.67;;;;;23.47;100.00;101050.75;5032940;28;45451;-71
2022/09/07 09:12:51;;;;;;;;;2.33;2.00;;;;;23.57;100.00;101036.91;5034320;28;45259;-70
2022/09/07 09:15:29;;;;;;;;;8.33;3.00;;;;;23.67;100.00;101047.31;5033017;28;45277;-70
2022/09/07 09:18:25;;;;;;;;;5.67;2.00;;;;;23.73;100.00;101046.19;5014676;28;47521;-70
2022/09/07 09:20:55;;;;;;;;;5.00;3.00;;;;;23.77;100.00;101047.81;5032118;28;45571;-71
2022/09/07 09:23:26;;;;;;;;;5.67;4.00;;;;;23.80;100.00;101044.97;5034426;28;45535;-70
2022/09/07 09:25:56;;;;;;;;;8.33;2.67;;;;;23.83;100.00;101039.47;5034751;28;46791;-71
2022/09/07 09:28:22;;;;;;;;;4.00;2.67;;;;;23.86;100.00;101033.94;5034050;28;47233;-70
2022/09/07 09:30:49;;;;;;;;;4.33;2.00;;;;;23.91;100.00;101033.75;5033333;28;46037;-71
2022/09/07 09:33:20;;;;;;;;;10.67;3.67;;;;;23.93;100.00;101040.00;5033901;28;45472;-70
2022/09/07 09:35:50;;;;;;;;;2.67;2.33;;;;;23.92;100.00;101040.94;5029618;28;45873;-70
2022/09/07 09:38:34;;;;;;;;;7.00;2.33;;;;;23.91;100.00;101040.03;5031825;28;47524;-71
2022/09/07 09:41:04;;;;;;;;;2.00;2.00;;;;;23.82;100.00;101036.84;5031416;28;45633;-70
2022/09/07 09:43:53;;;;;;;;;12.00;3.00;;;;;23.77;100.00;101032.53;5011951;28;45501;-71
2022/09/07 09:46:26;;;;;;;;;6.67;3.00;;;;;23.73;100.00;101033.56;5020121;28;45576;-70
2022/09/07 09:49:04;;;;;;;;;7.67;3.33;;;;;23.73;100.00;101032.69;5028309;28;46420;-71
2022/09/07 09:51:40;;;;;;;;;4.67;3.00;;;;;23.74;100.00;101029.06;5012994;28;45591;-71
2022/09/07 09:54:27;;;;;;;;;4.00;3.00;;;;;23.76;100.00;101027.19;5031214;28;45579;-71
2022/09/07 09:56:53;;;;;;;;;6.67;2.00;;;;;23.81;100.00;101030.59;5030407;28;45547;-71
2022/09/07 09:59:26;;;;;;;;;5.67;3.33;;;;;23.87;100.00;101041.13;5031801;28;46036;-70
2022/09/07 10:01:51;;;;;;;;;2.33;2.33;;;;;23.96;100.00;101024.53;5032514;28;45455;-70
2022/09/07 10:04:32;;;;;;;;;2.00;2.00;;;;;24.09;100.00;101022.22;5013271;28;45844;-70
2022/09/07 10:07:13;;;;;;;;;5.67;2.00;;;;;24.20;100.00;101022.66;5007492;28;45590;-70
2022/09/07 10:09:39;;;;;;;;;7.00;2.33;;;;;24.22;100.00;101019.88;5029882;28;46733;-70
2022/09/07 10:12:07;;;;;;;;;2.00;2.00;;;;;24.26;100.00;101022.38;5031897;28;45594;-70
2022/09/07 10:17:00;;;;;;;;;5.00;4.00;;;;;24.29;100.00;101024.09;5172965;22;63219;-70
2022/09/07 10:19:31;;;;;;;;;3.67;3.67;;;;;24.27;100.00;101021.44;5021802;28;46777;-69
2022/09/07 10:21:58;;;;;;;;;7.00;2.00;;;;;24.28;100.00;101020.47;5038030;28;45363;-70
2022/09/07 10:24:26;;;;;;;;;6.33;2.33;;;;;24.30;100.00;101017.72;5051509;28;45463;-69
2022/09/07 10:26:52;;;;;;;;;6.00;2.33;;;;;24.28;99.67;101022.31;5044017;28;45406;-71
2022/09/07 10:29:34;;;;;;;;;3.67;1.33;;;;;24.23;98.75;101006.31;5052998;28;46288;-71
2022/09/07 10:32:10;;;;;;;;;4.00;2.00;;;;;24.26;98.46;101010.72;5046089;28;45505;-70
2022/09/07 10:34:51;;;;;;;;;6.33;3.33;;;;;24.31;97.52;101009.56;5035972;28;45309;-71
2022/09/07 10:37:39;;;;;;;;;9.33;2.33;;;;;24.42;97.32;101019.94;5011700;28;45858;-70
2022/09/07 10:40:11;;;;;;;;;4.33;3.00;;;;;24.52;96.14;101006.91;5043651;28;46601;-71
2022/09/07 10:42:41;;;;;;;;;6.00;2.00;;;;;24.63;93.34;101009.13;5057071;28;45545;-72
2022/09/07 10:45:20;;;;;;;;;2.67;2.00;;;;;24.72;93.02;101012.31;5036146;28;45523;-71
2022/09/07 10:47:54;;;;;;;;;7.33;2.00;;;;;24.81;92.45;101017.28;5051889;28;45407;-72
2022/09/07 10:50:30;;;;;;;;;6.33;3.00;;;;;24.90;91.50;101007.00;5053741;28;46304;-72
2022/09/07 10:53:11;;;;;;;;;4.67;1.33;;;;;24.98;90.59;101004.81;5056514;28;45552;-70
2022/09/07 10:55:40;;;;;;;;;5.00;3.67;;;;;25.02;89.10;101001.03;5057474;28;45348;-71
2022/09/07 10:58:26;;;;;;;;;6.33;2.00;;;;;25.08;89.29;101003.47;5037904;28;45456;-72
2022/09/07 11:00:58;;;;;;;;;6.33;3.00;;;;;25.02;86.27;101012.72;5055453;28;46737;-72
2022/09/07 11:03:45;;;;;;;;;5.33;1.00;;;;;24.92;86.65;101003.28;5056407;28;45590;-72
2022/09/07 11:06:17;;;;;;;;;5.00;4.33;;;;;24.91;85.62;100990.72;5056764;28;45399;-71
2022/09/07 11:08:55;;;;;;;;;3.67;1.00;;;;;24.91;85.64;100997.94;5039155;28;45400;-72
2022/09/07 11:11:33;;;;;;;;;6.00;6.00;;;;;24.89;84.89;100979.13;5056832;28;47374;-71
2022/09/07 11:14:03;;;;;;;;;3.00;2.00;;;;;24.91;85.51;100984.44;5038841;28;45579;-72
2022/09/07 11:16:32;;;;;;;;;3.00;2.00;;;;;24.89;85.89;100983.66;5037239;28;45637;-71
2022/09/07 11:19:21;;;;;;;;;2.33;1.00;;;;;24.90;85.42;100983.56;5039387;28;45638;-72
2022/09/07 11:22:00;;;;;;;;;4.00;1.00;;;;;24.91;84.74;100988.03;5038095;28;46048;-72
2022/09/07 11:24:32;;;;;;;;;4.67;2.00;;;;;24.88;83.01;100993.59;5056327;28;45578;-70
2022/09/07 11:27:21;;;;;;;;;6.00;2.00;;;;;24.78;84.13;100986.84;5055038;28;45603;-71
2022/09/07 11:29:53;;;;;;;;;3.00;3.00;;;;;24.63;84.70;100990.22;5046773;28;45722;-71
2022/09/07 11:32:27;;;;;;;;;7.00;2.33;;;;;24.55;85.84;100980.66;5035677;28;46512;-71